FredonyerEastRWIS Atmospheric Data: 12/02/2019 Summary  Detailed Graphs  Station List

  Temperature     Wind Precipitation Visibility
Timestamp Air Wet
Bulb
Dew-
point
24-hr
Max
24-hr
Min
Relative
Humidity
Atmospheric
Pressure
Avg
Speed
Avg
Dir
Spot
Speed
Spot
Dir
Max
Speed
Max
Dir
  Rate Situation Start End 1 hr 3 hr 6 hr 12 hr 24 hr   Situation
Date Time °F °F °F °F °F % in Hg mph ° mph ° mph ° Y/N in/hr text Date Time Date Time in in in in in mi text
12/02/2019 12:41 AM 30.74 30.74 30.74 32.18 24.08 99.0 Not Reported 0.00 N 0.00 E 0.00 NE Yes 0.085 Rain Moderate 12/01/2019 11:39 PM   0.020 0.083 0.161 0.382 0.728 Not Reported Not Reported
12/02/2019 01:38 AM 30.92 30.92 30.74 32.18 24.08 99.0 Not Reported 0.00 N 0.00 E 0.00 NE No 0.000 No Precipitation 12/02/2019 12:31 AM 12/02/2019 12:36 AM 0.031 0.079 0.165 0.350 0.740 Not Reported Not Reported
12/02/2019 10:38 AM 34.16 33.26 32.00 35.78 29.48 91.0 Not Reported 0.89 SE 0.22 E 1.79 S No 0.000 No Precipitation 12/02/2019 07:47 AM 12/02/2019 07:52 AM 0.000 0.020 0.071 0.205 0.610 Not Reported Not Reported
12/02/2019 10:53 AM 34.16 33.62 32.54 35.78 29.84 93.0 Not Reported 0.22 E 0.00 E 1.57 S No 0.000 No Precipitation 12/02/2019 07:47 AM 12/02/2019 07:52 AM 0.000 0.020 0.071 0.201 0.602 Not Reported Not Reported
12/02/2019 11:08 AM 33.80 33.26 32.36 35.78 30.20 94.0 Not Reported 0.89 NE 0.45 E 2.24 NE No 0.000 No Precipitation 12/02/2019 07:47 AM 12/02/2019 07:52 AM 0.000 0.020 0.071 0.197 0.591 Not Reported Not Reported
12/02/2019 11:23 AM 33.44 33.08 32.54 35.78 30.38 96.0 Not Reported 0.22 W 0.00 E 1.34 E No 0.000 No Precipitation 12/02/2019 07:47 AM 12/02/2019 07:52 AM 0.000 0.016 0.067 0.185 0.587 Not Reported Not Reported
12/02/2019 11:40 AM 33.98 33.44 32.90 35.78 30.38 95.0 Not Reported 0.22 SE 0.67 SW 1.57 S No 0.000 No Precipitation 12/02/2019 07:47 AM 12/02/2019 07:52 AM 0.000 0.008 0.063 0.177 0.575 Not Reported Not Reported
12/02/2019 11:53 AM 33.98 33.44 32.72 35.78 30.74 94.0 Not Reported 0.45 NW 1.57 SW 1.57 SW No 0.000 No Precipitation 12/02/2019 07:47 AM 12/02/2019 07:52 AM 0.000 0.000 0.055 0.169 0.567 Not Reported Not Reported
12/02/2019 12:08 PM 33.80 33.26 32.72 35.78 30.74 95.0 Not Reported 0.67 S 0.00 SW 1.79 E No 0.000 No Precipitation 12/02/2019 07:47 AM 12/02/2019 07:52 AM 0.000 0.000 0.043 0.165 0.555 Not Reported Not Reported
12/02/2019 12:23 PM 34.88 34.34 33.62 35.78 30.74 95.0 Not Reported 0.00 NW 0.89 E 1.34 E No 0.000 No Precipitation 12/02/2019 07:47 AM 12/02/2019 07:52 AM 0.000 0.000 0.039 0.161 0.551 Not Reported Not Reported
12/02/2019 12:38 PM 35.06 34.34 33.44 35.78 30.74 93.0 Not Reported 0.00 N 0.22 NW 1.79 NE No 0.000 No Precipitation 12/02/2019 07:47 AM 12/02/2019 07:52 AM 0.000 0.000 0.031 0.161 0.539 Not Reported Not Reported
12/02/2019 12:53 PM 35.06 34.52 33.62 35.78 30.74 94.0 Not Reported 0.00 N 1.57 N 1.57 N No 0.000 No Precipitation 12/02/2019 07:47 AM 12/02/2019 07:52 AM 0.000 0.000 0.020 0.146 0.524 Not Reported Not Reported
12/02/2019 01:09 PM 35.24 34.34 33.26 35.78 30.74 92.0 Not Reported 1.57 NE 1.57 N 2.24 N No 0.000 No Precipitation 12/02/2019 07:47 AM 12/02/2019 07:52 AM 0.000 0.000 0.020 0.142 0.512 Not Reported Not Reported
12/02/2019 01:23 PM 34.52 34.16 33.44 35.78 30.74 95.0 Not Reported 1.57 S 1.57 SE 2.68 SE Yes 0.043 Rain Slight 12/02/2019 12:21 PM   0.004 0.004 0.028 0.138 0.492 Not Reported Not Reported
12/02/2019 01:38 PM 35.24 34.70 33.98 35.78 30.74 94.0 Not Reported 1.34 N 1.12 NE 2.68 NE No 0.000 No Precipitation 12/02/2019 12:21 PM 12/02/2019 12:26 PM 0.004 0.004 0.028 0.134 0.480 Not Reported Not Reported
12/02/2019 01:53 PM 35.06 34.34 33.44 35.78 30.74 93.0 Not Reported 0.89 NE 0.67 NE 1.79 N No 0.000 No Precipitation 12/02/2019 12:21 PM 12/02/2019 12:26 PM 0.004 0.004 0.028 0.126 0.469 Not Reported Not Reported
12/02/2019 02:08 PM 34.88 34.34 33.26 35.96 30.74 93.0 Not Reported 1.57 SE 0.22 E 2.24 SE No 0.000 No Precipitation 12/02/2019 12:21 PM 12/02/2019 12:26 PM 0.004 0.004 0.020 0.122 0.469 Not Reported Not Reported
12/02/2019 02:23 PM 35.42 34.88 33.98 35.96 30.74 94.0 Not Reported 0.00 SE 1.12 NE 1.34 E No 0.000 No Precipitation 12/02/2019 12:21 PM 12/02/2019 12:26 PM 0.000 0.004 0.020 0.110 0.461 Not Reported Not Reported
12/02/2019 02:38 PM 34.88 34.34 33.44 35.96 30.74 94.0 Not Reported 0.22 E 0.22 E 2.68 SE No 0.000 No Precipitation 12/02/2019 12:21 PM 12/02/2019 12:26 PM 0.000 0.004 0.008 0.110 0.453 Not Reported Not Reported
12/02/2019 02:53 PM 34.52 34.16 33.62 35.96 30.74 96.0 Not Reported 0.45 SE 0.00 N 1.79 S No 0.000 No Precipitation 12/02/2019 12:21 PM 12/02/2019 12:26 PM 0.000 0.004 0.004 0.102 0.441 Not Reported Not Reported
12/02/2019 03:08 PM 34.16 33.98 33.44 35.96 30.74 96.0 Not Reported 0.22 N 0.00 N 1.57 NE No 0.000 No Precipitation 12/02/2019 12:21 PM 12/02/2019 12:26 PM 0.000 0.004 0.004 0.091 0.433 Not Reported Not Reported
12/02/2019 03:23 PM 34.16 33.80 33.44 35.96 30.74 97.0 Not Reported 0.22 E 1.34 SE 1.79 E No 0.000 No Precipitation 12/02/2019 12:21 PM 12/02/2019 12:26 PM 0.000 0.004 0.004 0.091 0.421 Not Reported Not Reported
12/02/2019 03:38 PM 33.08 32.90 32.54 35.96 30.74 97.0 Not Reported 0.22 N 0.67 NE 0.89 N No 0.000 No Precipitation 12/02/2019 12:21 PM 12/02/2019 12:26 PM 0.000 0.004 0.004 0.083 0.413 Not Reported Not Reported
12/02/2019 03:54 PM 32.90 32.90 32.54 35.96 30.74 98.0 Not Reported 0.00 NW 0.00 NW 0.89 N No 0.000 No Precipitation 12/02/2019 12:21 PM 12/02/2019 12:26 PM 0.000 0.004 0.004 0.079 0.402 Not Reported Not Reported
12/02/2019 04:08 PM 33.26 33.08 32.90 35.96 30.74 98.0 Not Reported 0.00 W 0.00 W 1.34 NE No 0.000 No Precipitation 12/02/2019 12:21 PM 12/02/2019 12:26 PM 0.000 0.004 0.004 0.075 0.394 Not Reported Not Reported
12/02/2019 04:23 PM 32.90 32.72 32.54 35.96 30.74 98.0 Not Reported 0.00 N 0.00 N 0.67 N No 0.000 No Precipitation 12/02/2019 12:21 PM 12/02/2019 12:26 PM 0.000 0.000 0.004 0.075 0.394 Not Reported Not Reported
12/02/2019 04:38 PM 32.72 32.54 32.36 35.96 30.74 99.0 Not Reported 0.45 N 0.00 NW 0.67 N No 0.000 No Precipitation 12/02/2019 12:21 PM 12/02/2019 12:26 PM 0.000 0.000 0.004 0.075 0.390 Not Reported Not Reported
12/02/2019 04:53 PM 32.72 32.54 32.54 35.96 30.74 99.0 Not Reported 0.00 N 0.22 W 0.45 N No 0.000 No Precipitation 12/02/2019 12:21 PM 12/02/2019 12:26 PM 0.000 0.000 0.004 0.075 0.374 Not Reported Not Reported
12/02/2019 05:08 PM 32.18 32.18 32.00 35.96 30.74 99.0 Not Reported 0.00 N 0.00 NW 0.00 NW No 0.000 No Precipitation 12/02/2019 12:21 PM 12/02/2019 12:26 PM 0.000 0.000 0.004 0.075 0.370 Not Reported Not Reported
12/02/2019 05:23 PM 32.18 32.18 32.00 35.96 30.74 99.0 Not Reported 0.00 N 0.00 N 0.67 N No 0.000 No Precipitation 12/02/2019 12:21 PM 12/02/2019 12:26 PM 0.000 0.000 0.004 0.071 0.354 Not Reported Not Reported
12/02/2019 05:39 PM 32.36 32.18 32.18 35.96 30.74 99.0 Not Reported 0.00 N 0.00 N 0.45 N No 0.000 No Precipitation 12/02/2019 12:21 PM 12/02/2019 12:26 PM 0.000 0.000 0.004 0.067 0.354 Not Reported Not Reported
12/02/2019 05:53 PM 32.36 32.36 32.18 35.96 30.74 99.0 Not Reported 0.22 W 0.00 W 0.89 W No 0.000 No Precipitation 12/02/2019 12:21 PM 12/02/2019 12:26 PM 0.000 0.000 0.004 0.059 0.343 Not Reported Not Reported
12/02/2019 06:08 PM 32.36 32.36 32.36 35.96 30.74 99.0 Not Reported 0.00 N 0.00 N 0.45 N No 0.000 No Precipitation 12/02/2019 12:21 PM 12/02/2019 12:26 PM 0.000 0.000 0.004 0.051 0.335 Not Reported Not Reported
12/02/2019 06:24 PM 32.00 32.00 32.00 35.96 30.74 99.0 Not Reported 0.00 N 0.00 N 0.00 N No 0.000 No Precipitation 12/02/2019 12:21 PM 12/02/2019 12:26 PM 0.000 0.000 0.004 0.039 0.323 Not Reported Not Reported
12/02/2019 06:38 PM 32.18 32.18 32.00 35.96 30.74 99.0 Not Reported 0.00 N 0.00 SW 0.00 SW No 0.000 No Precipitation 12/02/2019 12:21 PM 12/02/2019 12:26 PM 0.000 0.000 0.004 0.035 0.323 Not Reported Not Reported
12/02/2019 06:53 PM 32.18 32.18 32.18 35.96 30.74 99.0 Not Reported 0.00 N 0.45 NW 0.45 NW No 0.000 No Precipitation 12/02/2019 12:21 PM 12/02/2019 12:26 PM 0.000 0.000 0.004 0.028 0.315 Not Reported Not Reported
12/02/2019 07:08 PM 32.18 32.18 32.18 35.96 30.74 99.0 Not Reported 0.45 NW 0.45 NW 0.89 NE No 0.000 No Precipitation 12/02/2019 12:21 PM 12/02/2019 12:26 PM 0.000 0.000 0.004 0.028 0.311 Not Reported Not Reported
12/02/2019 07:23 PM 32.18 32.18 32.18 35.96 30.74 99.0 Not Reported 0.00 N 0.00 NW 0.00 NW No 0.000 No Precipitation 12/02/2019 12:21 PM 12/02/2019 12:26 PM 0.000 0.000 0.000 0.028 0.307 Not Reported Not Reported
12/02/2019 07:38 PM 32.18 32.18 32.18 35.96 30.74 99.0 Not Reported 0.00 N 0.45 NE 1.12 S No 0.000 No Precipitation 12/02/2019 12:21 PM 12/02/2019 12:26 PM 0.000 0.000 0.000 0.028 0.299 Not Reported Not Reported
12/02/2019 07:53 PM 32.00 32.00 32.00 35.96 30.74 99.0 Not Reported 0.45 N 0.22 N 1.12 N No 0.000 No Precipitation 12/02/2019 12:21 PM 12/02/2019 12:26 PM 0.000 0.000 0.000 0.028 0.295 Not Reported Not Reported
12/02/2019 08:08 PM 32.18 32.18 32.18 35.96 30.74 99.0 Not Reported 0.00 N 0.00 N 1.12 NE No 0.000 No Precipitation 12/02/2019 12:21 PM 12/02/2019 12:26 PM 0.000 0.000 0.000 0.020 0.287 Not Reported Not Reported
12/02/2019 08:23 PM 32.18 32.18 32.18 35.96 30.74 99.0 Not Reported 0.00 N 0.00 N 0.00 N No 0.000 No Precipitation 12/02/2019 12:21 PM 12/02/2019 12:26 PM 0.000 0.000 0.000 0.020 0.280 Not Reported Not Reported
12/02/2019 08:38 PM 32.18 32.18 32.18 35.96 30.74 99.0 Not Reported 0.00 N 0.00 S 0.00 S No 0.000 No Precipitation 12/02/2019 12:21 PM 12/02/2019 12:26 PM 0.000 0.000 0.000 0.008 0.272 Not Reported Not Reported
12/02/2019 08:53 PM 32.18 32.18 32.18 35.96 30.74 99.0 Not Reported 0.00 N 0.00 N 1.34 N No 0.000 No Precipitation 12/02/2019 12:21 PM 12/02/2019 12:26 PM 0.000 0.000 0.000 0.004 0.260 Not Reported Not Reported
12/02/2019 09:08 PM 32.18 32.18 32.18 35.96 30.74 99.0 Not Reported 0.00 N 0.00 N 0.00 N No 0.000 No Precipitation 12/02/2019 12:21 PM 12/02/2019 12:26 PM 0.000 0.000 0.000 0.004 0.252 Not Reported Not Reported
12/02/2019 09:23 PM 32.18 32.18 32.18 35.96 30.74 99.0 Not Reported 0.00 N 0.00 N 0.00 N No 0.000 No Precipitation 12/02/2019 12:21 PM 12/02/2019 12:26 PM 0.000 0.000 0.000 0.004 0.244 Not Reported Not Reported
12/02/2019 09:38 PM 32.00 32.00 32.00 35.96 30.74 99.0 Not Reported 0.00 N 0.00 N 1.12 N No 0.000 No Precipitation 12/02/2019 12:21 PM 12/02/2019 12:26 PM 0.000 0.000 0.000 0.004 0.240 Not Reported Not Reported
12/02/2019 09:53 PM 32.00 32.00 32.00 35.96 30.74 99.0 Not Reported 0.00 N 0.00 NW 0.67 NW No 0.000 No Precipitation 12/02/2019 12:21 PM 12/02/2019 12:26 PM 0.000 0.000 0.000 0.004 0.236 Not Reported Not Reported
12/02/2019 10:09 PM 32.00 32.00 32.00 35.96 30.74 99.0 Not Reported 0.00 NW 0.22 NW 0.45 NW No 0.000 No Precipitation 12/02/2019 12:21 PM 12/02/2019 12:26 PM 0.000 0.000 0.000 0.004 0.224 Not Reported Not Reported
12/02/2019 10:23 PM 32.18 32.18 32.18 35.96 30.74 99.0 Not Reported 0.00 N 0.00 W 0.00 W No 0.000 No Precipitation 12/02/2019 12:21 PM 12/02/2019 12:26 PM 0.000 0.000 0.000 0.004 0.220 Not Reported Not Reported
12/02/2019 10:39 PM 32.18 32.18 32.18 35.96 30.74 99.0 Not Reported 0.00 N 0.00 W 0.00 W No 0.000 No Precipitation 12/02/2019 12:21 PM 12/02/2019 12:26 PM 0.000 0.000 0.000 0.004 0.209 Not Reported Not Reported
12/02/2019 10:53 PM 32.00 32.00 32.00 35.96 30.74 99.0 Not Reported 0.00 W 1.12 NW 1.12 NW No 0.000 No Precipitation 12/02/2019 12:21 PM 12/02/2019 12:26 PM 0.000 0.000 0.000 0.004 0.205 Not Reported Not Reported
12/02/2019 11:08 PM 32.00 32.00 32.00 35.96 30.74 99.0 Not Reported 0.00 N 0.00 NE 0.67 NE No 0.000 No Precipitation 12/02/2019 12:21 PM 12/02/2019 12:26 PM 0.000 0.000 0.000 0.004 0.201 Not Reported Not Reported
12/02/2019 11:23 PM 32.18 32.18 32.18 35.96 30.74 99.0 Not Reported 0.00 N 0.22 NE 0.89 NW No 0.000 No Precipitation 12/02/2019 12:21 PM 12/02/2019 12:26 PM 0.000 0.000 0.000 0.004 0.189 Not Reported Not Reported
12/02/2019 11:38 PM 32.18 32.18 32.18 35.96 30.74 99.0 Not Reported 0.00 NW 0.22 NW 0.22 NW No 0.000 No Precipitation 12/02/2019 12:21 PM 12/02/2019 12:26 PM 0.000 0.000 0.000 0.004 0.181 Not Reported Not Reported
12/02/2019 11:53 PM 32.18 32.18 32.18 35.96 30.74 99.0 Not Reported 0.00 NW 0.00 NW 1.12 N No 0.000 No Precipitation 12/02/2019 12:21 PM 12/02/2019 12:26 PM 0.000 0.000 0.000 0.004 0.177 Not Reported Not Reported